sim
Sign-in with your pilot id or email,
or register
Callsign
Passwort

Schedule Details

Flight Number: DLH2243
Departure: Nantes Atlantique Airport (LFRS) at 17:10
Arrival: Munich Airport (EDDM) at 19:00
Route: Lufthansa Passenger Schedule. Enter filed route here before submitting Pirep.

Weather Information
Getting current METAR information for LFRS 240400Z AUTO 19005KT 9999 SCT039 BKN047 11/10 Q1006 TEMPO 4500 -SHRA BKN030TCU
Getting current METAR information for EDDM 240420Z VRB02KT CAVOK 09/09 Q1009 NOSIG

Schedule Frequency

Route Map